This is the latest recevied weather packets stored in our database for station/object KE8YTO. If no packets are shown the sender has not sent any weather packets the latest 10 day(s).
| Time | Temp. | Humidity | Pressure | Rain* | Wind** | Luminosity | Snow |
|---|---|---|---|---|---|---|---|
| 1777380019 | 11.67° C | 82% | 984.1 hPa | 0 mm | - | - | - |
| 1777378829 | 11.67° C | 82% | 983.8 hPa | 0 mm | - | - | - |
| 1777366243 | - | - | 979.4 hPa | 0.25 mm | - | - | - |
| 1777360217 | 16.11° C | 87% | 979.7 hPa | 0 mm | - | - | - |
| 1777345827 | 16.67° C | 89% | 982 hPa | 1.52 mm | - | - | - |
| 1777339231 | 18.89° C | 72% | 980.9 hPa | 0 mm | - | - | - |
| 1777331443 | 18.89° C | 74% | 981.5 hPa | 0 mm | - | - | - |
| 1777328417 | 18.33° C | 76% | 981.5 hPa | 0.25 mm | - | - | - |
| 1777327220 | 17.78° C | 77% | 981.8 hPa | 0 mm | - | - | - |
| 1777318818 | 19.44° C | 65% | 987.5 hPa | 0.51 mm | - | - | - |
| 1777314020 | 22.22° C | 47% | 987.4 hPa | 0 mm | - | - | - |
| 1777312829 | 22.78° C | 47% | 987.4 hPa | 0 mm | - | - | - |
| 1777308629 | 21.11° C | 52% | 989 hPa | 0 mm | - | - | - |
| 1777306824 | 20.56° C | 53% | 989.5 hPa | 0 mm | - | - | - |
| 1777305656 | 20.56° C | 54% | 989.5 hPa | 0 mm | - | - | - |
| 1777305021 | 19.44° C | 56% | 989.6 hPa | 0 mm | - | - | - |
| 1777304426 | 19.44° C | 56% | 989.8 hPa | 0 mm | - | - | - |
| 1777301426 | 18.33° C | 58% | 990.2 hPa | 0 mm | - | - | - |
| 1777300224 | 17.78° C | 60% | 990.1 hPa | 0 mm | - | - | - |
| 1777297218 | 14.44° C | 65% | 991.2 hPa | 0 mm | - | - | - |
| 1777287618 | 8.89° C | 76% | 992.7 hPa | 0 mm | - | - | - |
| 1777284030 | 8.89° C | 73% | 993.9 hPa | 0 mm | - | - | - |
| 1777280423 | 9.44° C | 68% | 994.3 hPa | 0 mm | - | - | - |
| 1777278024 | 9.44° C | 65% | 994 hPa | 0 mm | - | - | - |
| 1777276817 | 10° C | 64% | 993.9 hPa | 0 mm | - | - | - |
* Rain latest hour (hover to see other rain measurements)
** Current wind speed in m/s (hover to see current wind gust speed)